sensor_id;sensor_type;location;lat;lon;timestamp;P1;durP1;ratioP1;P2;durP2;ratioP2
63342;SDS011;49465;57.664;39.686;2023-08-07T00:01:08;6.18;;;3.92;;
63342;SDS011;49465;57.664;39.686;2023-08-07T00:03:42;5.35;;;4.00;;
63342;SDS011;49465;57.664;39.686;2023-08-07T00:06:23;8.48;;;3.80;;
63342;SDS011;49465;57.664;39.686;2023-08-07T00:09:00;6.38;;;4.00;;
63342;SDS011;49465;57.664;39.686;2023-08-07T00:14:13;7.57;;;4.20;;
63342;SDS011;49465;57.664;39.686;2023-08-07T00:16:49;6.72;;;3.88;;
63342;SDS011;49465;57.664;39.686;2023-08-07T00:19:23;7.60;;;4.35;;
63342;SDS011;49465;57.664;39.686;2023-08-07T00:21:58;7.75;;;4.05;;
63342;SDS011;49465;57.664;39.686;2023-08-07T00:24:36;8.98;;;4.68;;
63342;SDS011;49465;57.664;39.686;2023-08-07T00:27:07;9.95;;;4.22;;
63342;SDS011;49465;57.664;39.686;2023-08-07T00:29:45;7.07;;;4.20;;
63342;SDS011;49465;57.664;39.686;2023-08-07T00:32:23;8.68;;;4.57;;
63342;SDS011;49465;57.664;39.686;2023-08-07T00:35:00;7.20;;;4.40;;
63342;SDS011;49465;57.664;39.686;2023-08-07T00:37:45;6.03;;;4.47;;
63342;SDS011;49465;57.664;39.686;2023-08-07T00:40:19;6.35;;;4.18;;
63342;SDS011;49465;57.664;39.686;2023-08-07T00:42:57;6.45;;;4.07;;
63342;SDS011;49465;57.664;39.686;2023-08-07T00:45:29;7.05;;;3.85;;
63342;SDS011;49465;57.664;39.686;2023-08-07T00:48:05;7.65;;;3.70;;
63342;SDS011;49465;57.664;39.686;2023-08-07T00:50:44;6.28;;;4.15;;
63342;SDS011;49465;57.664;39.686;2023-08-07T00:53:19;7.47;;;4.40;;
63342;SDS011;49465;57.664;39.686;2023-08-07T00:55:56;8.43;;;4.22;;
63342;SDS011;49465;57.664;39.686;2023-08-07T00:58:33;6.00;;;4.22;;
63342;SDS011;49465;57.664;39.686;2023-08-07T01:01:05;6.88;;;4.28;;
63342;SDS011;49465;57.664;39.686;2023-08-07T01:03:46;6.82;;;3.70;;
63342;SDS011;49465;57.664;39.686;2023-08-07T01:06:18;6.38;;;4.07;;
63342;SDS011;49465;57.664;39.686;2023-08-07T01:08:55;5.85;;;4.50;;
63342;SDS011;49465;57.664;39.686;2023-08-07T01:11:37;8.48;;;4.47;;
63342;SDS011;49465;57.664;39.686;2023-08-07T01:14:30;7.93;;;4.78;;
63342;SDS011;49465;57.664;39.686;2023-08-07T01:17:14;6.80;;;4.50;;
63342;SDS011;49465;57.664;39.686;2023-08-07T01:19:54;6.70;;;4.63;;
63342;SDS011;49465;57.664;39.686;2023-08-07T01:22:32;7.60;;;4.55;;
63342;SDS011;49465;57.664;39.686;2023-08-07T01:25:07;9.25;;;4.93;;
63342;SDS011;49465;57.664;39.686;2023-08-07T01:30:46;7.18;;;4.80;;
63342;SDS011;49465;57.664;39.686;2023-08-07T01:33:24;9.10;;;4.93;;
63342;SDS011;49465;57.664;39.686;2023-08-07T01:36:08;7.78;;;4.65;;
63342;SDS011;49465;57.664;39.686;2023-08-07T01:38:41;10.45;;;4.90;;
63342;SDS011;49465;57.664;39.686;2023-08-07T01:41:15;8.80;;;4.68;;
63342;SDS011;49465;57.664;39.686;2023-08-07T01:43:52;6.50;;;4.57;;
63342;SDS011;49465;57.664;39.686;2023-08-07T01:46:36;5.57;;;4.82;;
63342;SDS011;49465;57.664;39.686;2023-08-07T01:49:14;7.15;;;4.85;;
63342;SDS011;49465;57.664;39.686;2023-08-07T01:51:45;5.60;;;4.45;;
63342;SDS011;49465;57.664;39.686;2023-08-07T01:54:17;7.50;;;4.65;;
63342;SDS011;49465;57.664;39.686;2023-08-07T01:56:55;6.95;;;4.68;;
63342;SDS011;49465;57.664;39.686;2023-08-07T01:59:29;4.90;;;4.40;;
63342;SDS011;49465;57.664;39.686;2023-08-07T02:02:06;6.38;;;4.25;;
63342;SDS011;49465;57.664;39.686;2023-08-07T02:04:46;9.73;;;4.63;;
63342;SDS011;49465;57.664;39.686;2023-08-07T02:07:20;4.85;;;4.00;;
63342;SDS011;49465;57.664;39.686;2023-08-07T02:09:51;7.95;;;4.63;;
63342;SDS011;49465;57.664;39.686;2023-08-07T02:12:23;6.95;;;4.60;;
63342;SDS011;49465;57.664;39.686;2023-08-07T02:14:57;6.82;;;4.45;;
63342;SDS011;49465;57.664;39.686;2023-08-07T02:17:32;10.02;;;4.78;;
63342;SDS011;49465;57.664;39.686;2023-08-07T02:20:08;7.85;;;4.63;;
63342;SDS011;49465;57.664;39.686;2023-08-07T02:22:51;8.23;;;4.72;;
63342;SDS011;49465;57.664;39.686;2023-08-07T02:25:26;5.18;;;4.35;;
63342;SDS011;49465;57.664;39.686;2023-08-07T02:27:58;6.53;;;4.53;;
63342;SDS011;49465;57.664;39.686;2023-08-07T02:30:40;7.40;;;4.78;;
63342;SDS011;49465;57.664;39.686;2023-08-07T02:33:19;9.43;;;4.63;;
63342;SDS011;49465;57.664;39.686;2023-08-07T02:35:51;7.97;;;4.60;;
63342;SDS011;49465;57.664;39.686;2023-08-07T02:38:28;5.53;;;4.60;;
63342;SDS011;49465;57.664;39.686;2023-08-07T02:41:02;4.40;;;3.90;;
63342;SDS011;49465;57.664;39.686;2023-08-07T02:43:35;7.43;;;4.57;;
63342;SDS011;49465;57.664;39.686;2023-08-07T02:46:09;8.77;;;4.57;;
63342;SDS011;49465;57.664;39.686;2023-08-07T02:48:44;6.05;;;4.40;;
63342;SDS011;49465;57.664;39.686;2023-08-07T02:51:17;7.53;;;4.20;;
63342;SDS011;49465;57.664;39.686;2023-08-07T02:53:50;7.45;;;4.43;;
63342;SDS011;49465;57.664;39.686;2023-08-07T02:56:25;6.60;;;4.07;;
63342;SDS011;49465;57.664;39.686;2023-08-07T02:58:57;6.10;;;4.20;;
63342;SDS011;49465;57.664;39.686;2023-08-07T03:01:35;6.25;;;4.18;;
63342;SDS011;49465;57.664;39.686;2023-08-07T03:04:18;7.25;;;4.10;;
63342;SDS011;49465;57.664;39.686;2023-08-07T03:06:52;6.60;;;4.22;;
63342;SDS011;49465;57.664;39.686;2023-08-07T03:09:26;7.43;;;3.83;;
63342;SDS011;49465;57.664;39.686;2023-08-07T03:12:04;6.63;;;4.45;;
63342;SDS011;49465;57.664;39.686;2023-08-07T03:14:38;6.65;;;4.22;;
63342;SDS011;49465;57.664;39.686;2023-08-07T03:17:17;7.03;;;4.22;;
63342;SDS011;49465;57.664;39.686;2023-08-07T03:19:47;7.38;;;4.25;;
63342;SDS011;49465;57.664;39.686;2023-08-07T03:22:28;8.02;;;4.70;;
63342;SDS011;49465;57.664;39.686;2023-08-07T03:25:05;8.10;;;4.43;;
63342;SDS011;49465;57.664;39.686;2023-08-07T03:27:31;10.25;;;4.90;;
63342;SDS011;49465;57.664;39.686;2023-08-07T03:30:04;6.75;;;5.15;;
63342;SDS011;49465;57.664;39.686;2023-08-07T03:32:42;8.25;;;4.85;;
63342;SDS011;49465;57.664;39.686;2023-08-07T03:35:18;7.55;;;5.00;;
63342;SDS011;49465;57.664;39.686;2023-08-07T03:37:56;9.32;;;5.25;;
63342;SDS011;49465;57.664;39.686;2023-08-07T03:40:31;14.25;;;5.40;;
63342;SDS011;49465;57.664;39.686;2023-08-07T03:43:14;6.45;;;5.07;;
63342;SDS011;49465;57.664;39.686;2023-08-07T03:45:45;6.47;;;4.93;;
63342;SDS011;49465;57.664;39.686;2023-08-07T03:48:25;10.27;;;5.32;;
63342;SDS011;49465;57.664;39.686;2023-08-07T03:51:08;7.40;;;5.30;;
63342;SDS011;49465;57.664;39.686;2023-08-07T03:53:40;7.85;;;5.13;;
63342;SDS011;49465;57.664;39.686;2023-08-07T03:56:13;9.73;;;5.72;;
63342;SDS011;49465;57.664;39.686;2023-08-07T03:58:45;9.52;;;5.38;;
63342;SDS011;49465;57.664;39.686;2023-08-07T04:01:18;8.18;;;5.13;;
63342;SDS011;49465;57.664;39.686;2023-08-07T04:03:49;7.95;;;5.10;;
63342;SDS011;49465;57.664;39.686;2023-08-07T04:06:24;9.77;;;4.82;;
63342;SDS011;49465;57.664;39.686;2023-08-07T04:08:56;9.88;;;5.05;;
63342;SDS011;49465;57.664;39.686;2023-08-07T04:11:30;6.90;;;5.22;;
63342;SDS011;49465;57.664;39.686;2023-08-07T04:14:07;10.30;;;4.78;;
63342;SDS011;49465;57.664;39.686;2023-08-07T04:16:40;6.18;;;4.20;;
63342;SDS011;49465;57.664;39.686;2023-08-07T04:19:14;7.50;;;3.83;;
63342;SDS011;49465;57.664;39.686;2023-08-07T04:21:46;4.65;;;4.10;;
63342;SDS011;49465;57.664;39.686;2023-08-07T04:24:20;4.00;;;3.60;;
63342;SDS011;49465;57.664;39.686;2023-08-07T04:26:58;8.10;;;3.75;;
63342;SDS011;49465;57.664;39.686;2023-08-07T04:29:32;6.43;;;3.92;;
63342;SDS011;49465;57.664;39.686;2023-08-07T04:32:06;7.47;;;3.60;;
63342;SDS011;49465;57.664;39.686;2023-08-07T04:34:41;5.45;;;3.90;;
63342;SDS011;49465;57.664;39.686;2023-08-07T04:37:13;5.70;;;3.90;;
63342;SDS011;49465;57.664;39.686;2023-08-07T04:39:45;6.35;;;3.90;;
63342;SDS011;49465;57.664;39.686;2023-08-07T04:42:11;5.97;;;4.07;;
63342;SDS011;49465;57.664;39.686;2023-08-07T04:44:40;6.43;;;4.38;;
63342;SDS011;49465;57.664;39.686;2023-08-07T04:47:06;9.35;;;4.00;;
63342;SDS011;49465;57.664;39.686;2023-08-07T04:49:38;7.88;;;3.70;;
63342;SDS011;49465;57.664;39.686;2023-08-07T04:52:12;7.22;;;3.80;;
63342;SDS011;49465;57.664;39.686;2023-08-07T04:54:43;10.00;;;4.03;;
63342;SDS011;49465;57.664;39.686;2023-08-07T04:57:15;7.85;;;4.03;;
63342;SDS011;49465;57.664;39.686;2023-08-07T04:59:51;7.07;;;4.03;;
63342;SDS011;49465;57.664;39.686;2023-08-07T05:02:21;6.72;;;3.78;;
63342;SDS011;49465;57.664;39.686;2023-08-07T05:04:50;8.13;;;4.00;;
63342;SDS011;49465;57.664;39.686;2023-08-07T05:07:21;4.88;;;3.80;;
63342;SDS011;49465;57.664;39.686;2023-08-07T05:09:48;9.20;;;4.20;;
63342;SDS011;49465;57.664;39.686;2023-08-07T05:12:19;7.43;;;3.97;;
63342;SDS011;49465;57.664;39.686;2023-08-07T05:14:50;5.38;;;3.90;;
63342;SDS011;49465;57.664;39.686;2023-08-07T05:17:24;6.05;;;4.10;;
63342;SDS011;49465;57.664;39.686;2023-08-07T05:19:58;6.82;;;4.22;;
63342;SDS011;49465;57.664;39.686;2023-08-07T05:22:39;6.45;;;4.35;;
63342;SDS011;49465;57.664;39.686;2023-08-07T05:25:10;7.18;;;3.88;;
63342;SDS011;49465;57.664;39.686;2023-08-07T05:27:45;6.97;;;4.20;;
63342;SDS011;49465;57.664;39.686;2023-08-07T05:30:12;8.00;;;5.82;;
63342;SDS011;49465;57.664;39.686;2023-08-07T05:32:44;6.20;;;4.63;;
63342;SDS011;49465;57.664;39.686;2023-08-07T05:35:21;6.72;;;4.10;;
63342;SDS011;49465;57.664;39.686;2023-08-07T05:37:51;6.30;;;4.20;;
63342;SDS011;49465;57.664;39.686;2023-08-07T05:40:22;6.18;;;4.25;;
63342;SDS011;49465;57.664;39.686;2023-08-07T05:42:53;9.98;;;4.38;;
63342;SDS011;49465;57.664;39.686;2023-08-07T05:45:19;8.05;;;4.25;;
63342;SDS011;49465;57.664;39.686;2023-08-07T05:47:50;8.73;;;4.20;;
63342;SDS011;49465;57.664;39.686;2023-08-07T05:50:22;6.13;;;4.05;;
63342;SDS011;49465;57.664;39.686;2023-08-07T05:52:50;8.32;;;4.20;;
63342;SDS011;49465;57.664;39.686;2023-08-07T05:55:17;5.85;;;4.38;;
63342;SDS011;49465;57.664;39.686;2023-08-07T05:57:43;9.40;;;4.18;;
63342;SDS011;49465;57.664;39.686;2023-08-07T06:00:15;8.32;;;4.30;;
63342;SDS011;49465;57.664;39.686;2023-08-07T06:02:42;4.43;;;3.88;;
63342;SDS011;49465;57.664;39.686;2023-08-07T06:05:12;5.53;;;4.00;;
63342;SDS011;49465;57.664;39.686;2023-08-07T06:07:48;9.20;;;4.22;;
63342;SDS011;49465;57.664;39.686;2023-08-07T06:10:21;11.07;;;3.85;;
63342;SDS011;49465;57.664;39.686;2023-08-07T06:12:55;6.53;;;4.03;;
63342;SDS011;49465;57.664;39.686;2023-08-07T06:15:33;6.18;;;3.72;;
63342;SDS011;49465;57.664;39.686;2023-08-07T06:18:07;5.93;;;4.10;;
63342;SDS011;49465;57.664;39.686;2023-08-07T06:20:39;6.53;;;4.22;;
63342;SDS011;49465;57.664;39.686;2023-08-07T06:23:14;7.10;;;4.10;;
63342;SDS011;49465;57.664;39.686;2023-08-07T06:25:55;12.57;;;3.60;;
63342;SDS011;49465;57.664;39.686;2023-08-07T06:28:25;9.13;;;3.60;;
63342;SDS011;49465;57.664;39.686;2023-08-07T06:31:04;9.52;;;3.55;;
63342;SDS011;49465;57.664;39.686;2023-08-07T06:33:43;8.27;;;3.30;;
63342;SDS011;49465;57.664;39.686;2023-08-07T06:36:10;5.93;;;3.10;;
63342;SDS011;49465;57.664;39.686;2023-08-07T06:38:50;4.50;;;3.10;;
63342;SDS011;49465;57.664;39.686;2023-08-07T06:41:22;3.97;;;3.20;;
63342;SDS011;49465;57.664;39.686;2023-08-07T06:43:51;6.75;;;3.00;;
63342;SDS011;49465;57.664;39.686;2023-08-07T06:46:22;6.25;;;3.00;;
63342;SDS011;49465;57.664;39.686;2023-08-07T06:48:55;3.72;;;3.10;;
63342;SDS011;49465;57.664;39.686;2023-08-07T06:51:30;6.00;;;2.90;;
63342;SDS011;49465;57.664;39.686;2023-08-07T06:53:56;7.93;;;3.30;;
63342;SDS011;49465;57.664;39.686;2023-08-07T06:56:32;8.38;;;2.85;;
63342;SDS011;49465;57.664;39.686;2023-08-07T06:59:02;7.38;;;3.00;;
63342;SDS011;49465;57.664;39.686;2023-08-07T07:01:34;7.47;;;3.00;;
63342;SDS011;49465;57.664;39.686;2023-08-07T07:04:15;5.97;;;3.30;;
63342;SDS011;49465;57.664;39.686;2023-08-07T07:06:43;5.68;;;3.08;;
63342;SDS011;49465;57.664;39.686;2023-08-07T07:09:21;5.38;;;3.05;;
63342;SDS011;49465;57.664;39.686;2023-08-07T07:11:50;5.43;;;2.78;;
63342;SDS011;49465;57.664;39.686;2023-08-07T07:14:23;6.28;;;2.90;;
63342;SDS011;49465;57.664;39.686;2023-08-07T07:19:36;7.00;;;3.10;;
63342;SDS011;49465;57.664;39.686;2023-08-07T07:22:02;3.20;;;2.50;;
63342;SDS011;49465;57.664;39.686;2023-08-07T07:24:40;5.50;;;2.65;;
63342;SDS011;49465;57.664;39.686;2023-08-07T07:27:11;5.05;;;2.53;;
63342;SDS011;49465;57.664;39.686;2023-08-07T07:29:41;3.83;;;2.53;;
63342;SDS011;49465;57.664;39.686;2023-08-07T07:32:13;4.15;;;2.80;;
63342;SDS011;49465;57.664;39.686;2023-08-07T07:34:45;5.07;;;2.35;;
63342;SDS011;49465;57.664;39.686;2023-08-07T07:37:19;4.53;;;2.50;;
63342;SDS011;49465;57.664;39.686;2023-08-07T07:39:48;2.92;;;2.33;;
63342;SDS011;49465;57.664;39.686;2023-08-07T07:42:17;5.30;;;2.40;;
63342;SDS011;49465;57.664;39.686;2023-08-07T07:44:51;3.35;;;2.40;;
63342;SDS011;49465;57.664;39.686;2023-08-07T07:47:20;6.07;;;2.55;;
63342;SDS011;49465;57.664;39.686;2023-08-07T07:50:03;4.47;;;2.40;;
63342;SDS011;49465;57.664;39.686;2023-08-07T07:52:40;6.40;;;3.15;;
63342;SDS011;49465;57.664;39.686;2023-08-07T07:55:11;4.25;;;2.55;;
63342;SDS011;49465;57.664;39.686;2023-08-07T07:57:40;5.18;;;2.60;;
63342;SDS011;49465;57.664;39.686;2023-08-07T08:00:18;5.25;;;2.50;;
63342;SDS011;49465;57.664;39.686;2023-08-07T08:02:52;7.00;;;2.33;;
63342;SDS011;49465;57.664;39.686;2023-08-07T08:05:24;4.55;;;2.40;;
63342;SDS011;49465;57.664;39.686;2023-08-07T08:08:05;3.90;;;2.10;;
63342;SDS011;49465;57.664;39.686;2023-08-07T08:10:38;2.47;;;2.03;;
63342;SDS011;49465;57.664;39.686;2023-08-07T08:13:11;2.97;;;2.13;;
63342;SDS011;49465;57.664;39.686;2023-08-07T08:15:41;4.55;;;2.20;;
63342;SDS011;49465;57.664;39.686;2023-08-07T08:18:10;3.50;;;2.10;;
63342;SDS011;49465;57.664;39.686;2023-08-07T08:20:48;3.30;;;2.10;;
63342;SDS011;49465;57.664;39.686;2023-08-07T08:23:28;4.75;;;2.20;;
63342;SDS011;49465;57.664;39.686;2023-08-07T08:26:05;4.20;;;2.10;;
63342;SDS011;49465;57.664;39.686;2023-08-07T08:28:35;3.08;;;2.10;;
63342;SDS011;49465;57.664;39.686;2023-08-07T08:31:03;3.42;;;2.00;;
63342;SDS011;49465;57.664;39.686;2023-08-07T08:33:33;3.45;;;1.88;;
63342;SDS011;49465;57.664;39.686;2023-08-07T08:36:04;3.15;;;1.90;;
63342;SDS011;49465;57.664;39.686;2023-08-07T08:38:36;4.15;;;2.00;;
63342;SDS011;49465;57.664;39.686;2023-08-07T08:41:08;3.05;;;1.75;;
63342;SDS011;49465;57.664;39.686;2023-08-07T08:43:43;5.28;;;1.67;;
63342;SDS011;49465;57.664;39.686;2023-08-07T08:46:33;1.83;;;1.70;;
63342;SDS011;49465;57.664;39.686;2023-08-07T08:49:05;4.78;;;2.00;;
63342;SDS011;49465;57.664;39.686;2023-08-07T08:51:38;5.47;;;1.90;;
63342;SDS011;49465;57.664;39.686;2023-08-07T08:54:11;2.92;;;2.03;;
63342;SDS011;49465;57.664;39.686;2023-08-07T08:56:41;3.50;;;1.90;;
63342;SDS011;49465;57.664;39.686;2023-08-07T08:59:13;4.28;;;1.77;;
63342;SDS011;49465;57.664;39.686;2023-08-07T09:01:51;3.90;;;1.73;;
63342;SDS011;49465;57.664;39.686;2023-08-07T09:04:20;5.25;;;1.92;;
63342;SDS011;49465;57.664;39.686;2023-08-07T09:07:01;3.92;;;1.90;;
63342;SDS011;49465;57.664;39.686;2023-08-07T09:09:30;3.15;;;1.80;;
63342;SDS011;49465;57.664;39.686;2023-08-07T09:12:01;3.13;;;1.65;;
63342;SDS011;49465;57.664;39.686;2023-08-07T09:14:32;2.17;;;1.80;;
63342;SDS011;49465;57.664;39.686;2023-08-07T09:17:04;4.47;;;2.20;;
63342;SDS011;49465;57.664;39.686;2023-08-07T09:19:34;2.75;;;1.80;;
63342;SDS011;49465;57.664;39.686;2023-08-07T09:22:06;2.38;;;1.90;;
63342;SDS011;49465;57.664;39.686;2023-08-07T09:24:42;5.95;;;2.03;;
63342;SDS011;49465;57.664;39.686;2023-08-07T09:27:11;4.78;;;1.90;;
63342;SDS011;49465;57.664;39.686;2023-08-07T09:29:40;4.47;;;2.33;;
63342;SDS011;49465;57.664;39.686;2023-08-07T09:32:19;5.60;;;2.00;;
63342;SDS011;49465;57.664;39.686;2023-08-07T09:37:20;4.55;;;1.83;;
63342;SDS011;49465;57.664;39.686;2023-08-07T09:39:50;4.05;;;1.90;;
63342;SDS011;49465;57.664;39.686;2023-08-07T09:42:19;3.63;;;2.20;;
63342;SDS011;49465;57.664;39.686;2023-08-07T09:44:57;2.90;;;2.20;;
63342;SDS011;49465;57.664;39.686;2023-08-07T09:47:55;1.95;;;1.73;;
63342;SDS011;49465;57.664;39.686;2023-08-07T09:50:46;2.63;;;1.85;;
63342;SDS011;49465;57.664;39.686;2023-08-07T09:53:12;3.22;;;1.85;;
63342;SDS011;49465;57.664;39.686;2023-08-07T09:55:44;1.90;;;1.80;;
63342;SDS011;49465;57.664;39.686;2023-08-07T09:58:15;2.10;;;1.90;;
63342;SDS011;49465;57.664;39.686;2023-08-07T10:00:49;3.00;;;1.90;;
63342;SDS011;49465;57.664;39.686;2023-08-07T10:03:21;2.45;;;2.00;;
63342;SDS011;49465;57.664;39.686;2023-08-07T10:05:51;5.47;;;2.10;;
63342;SDS011;49465;57.664;39.686;2023-08-07T10:08:23;4.63;;;2.00;;
63342;SDS011;49465;57.664;39.686;2023-08-07T10:10:51;6.90;;;2.08;;
63342;SDS011;49465;57.664;39.686;2023-08-07T10:13:22;4.45;;;2.00;;
63342;SDS011;49465;57.664;39.686;2023-08-07T10:15:52;3.17;;;2.10;;
63342;SDS011;49465;57.664;39.686;2023-08-07T10:18:19;2.78;;;2.00;;
63342;SDS011;49465;57.664;39.686;2023-08-07T10:20:53;2.03;;;1.83;;
63342;SDS011;49465;57.664;39.686;2023-08-07T10:23:28;6.43;;;2.08;;
63342;SDS011;49465;57.664;39.686;2023-08-07T10:25:59;3.25;;;1.90;;
63342;SDS011;49465;57.664;39.686;2023-08-07T10:28:33;3.30;;;1.60;;
63342;SDS011;49465;57.664;39.686;2023-08-07T10:31:04;1.88;;;1.58;;
63342;SDS011;49465;57.664;39.686;2023-08-07T10:33:41;2.00;;;1.70;;
63342;SDS011;49465;57.664;39.686;2023-08-07T10:36:15;4.03;;;1.70;;
63342;SDS011;49465;57.664;39.686;2023-08-07T10:38:48;2.13;;;1.60;;
63342;SDS011;49465;57.664;39.686;2023-08-07T10:41:18;1.90;;;1.60;;
63342;SDS011;49465;57.664;39.686;2023-08-07T10:43:49;2.25;;;1.63;;
63342;SDS011;49465;57.664;39.686;2023-08-07T10:46:24;5.20;;;1.63;;
63342;SDS011;49465;57.664;39.686;2023-08-07T10:49:58;4.85;;;1.60;;
63342;SDS011;49465;57.664;39.686;2023-08-07T10:52:14;4.43;;;1.60;;
63342;SDS011;49465;57.664;39.686;2023-08-07T10:54:44;5.65;;;1.63;;
63342;SDS011;49465;57.664;39.686;2023-08-07T10:57:14;3.17;;;1.85;;
63342;SDS011;49465;57.664;39.686;2023-08-07T11:02:25;4.93;;;1.55;;
63342;SDS011;49465;57.664;39.686;2023-08-07T11:05:07;3.15;;;1.70;;
63342;SDS011;49465;57.664;39.686;2023-08-07T11:07:44;2.83;;;1.60;;
63342;SDS011;49465;57.664;39.686;2023-08-07T11:10:12;3.40;;;1.55;;
63342;SDS011;49465;57.664;39.686;2023-08-07T11:12:45;1.83;;;1.67;;
63342;SDS011;49465;57.664;39.686;2023-08-07T11:15:13;2.93;;;1.70;;
63342;SDS011;49465;57.664;39.686;2023-08-07T11:17:39;3.00;;;1.50;;
63342;SDS011;49465;57.664;39.686;2023-08-07T11:20:11;2.00;;;1.53;;
63342;SDS011;49465;57.664;39.686;2023-08-07T11:22:37;5.85;;;1.73;;
63342;SDS011;49465;57.664;39.686;2023-08-07T11:25:10;2.17;;;1.60;;
63342;SDS011;49465;57.664;39.686;2023-08-07T11:27:40;2.22;;;1.60;;
63342;SDS011;49465;57.664;39.686;2023-08-07T11:30:22;7.22;;;1.70;;
63342;SDS011;49465;57.664;39.686;2023-08-07T11:33:01;1.92;;;1.60;;
63342;SDS011;49465;57.664;39.686;2023-08-07T11:35:33;4.75;;;1.77;;
63342;SDS011;49465;57.664;39.686;2023-08-07T11:40:29;3.33;;;1.75;;
63342;SDS011;49465;57.664;39.686;2023-08-07T11:42:55;2.63;;;1.63;;
63342;SDS011;49465;57.664;39.686;2023-08-07T11:45:37;2.72;;;1.80;;
63342;SDS011;49465;57.664;39.686;2023-08-07T11:48:10;3.67;;;1.90;;
63342;SDS011;49465;57.664;39.686;2023-08-07T11:50:37;3.15;;;1.77;;
63342;SDS011;49465;57.664;39.686;2023-08-07T11:53:05;4.18;;;1.75;;
63342;SDS011;49465;57.664;39.686;2023-08-07T11:55:34;3.55;;;1.70;;
63342;SDS011;49465;57.664;39.686;2023-08-07T11:58:03;3.45;;;1.60;;
63342;SDS011;49465;57.664;39.686;2023-08-07T12:00:31;2.35;;;1.67;;
63342;SDS011;49465;57.664;39.686;2023-08-07T12:03:05;2.63;;;1.52;;
63342;SDS011;49465;57.664;39.686;2023-08-07T12:05:57;2.00;;;1.52;;
63342;SDS011;49465;57.664;39.686;2023-08-07T12:08:37;4.93;;;1.60;;
63342;SDS011;49465;57.664;39.686;2023-08-07T12:11:06;4.90;;;1.63;;
63342;SDS011;49465;57.664;39.686;2023-08-07T12:13:43;2.65;;;1.65;;
63342;SDS011;49465;57.664;39.686;2023-08-07T12:16:16;3.20;;;1.70;;
63342;SDS011;49465;57.664;39.686;2023-08-07T12:21:29;2.05;;;1.67;;
63342;SDS011;49465;57.664;39.686;2023-08-07T12:24:02;1.80;;;1.70;;
63342;SDS011;49465;57.664;39.686;2023-08-07T12:26:31;4.38;;;1.60;;
63342;SDS011;49465;57.664;39.686;2023-08-07T12:29:16;4.28;;;1.70;;
63342;SDS011;49465;57.664;39.686;2023-08-07T12:31:51;3.17;;;1.70;;
63342;SDS011;49465;57.664;39.686;2023-08-07T12:34:27;2.50;;;1.65;;
63342;SDS011;49465;57.664;39.686;2023-08-07T12:37:11;3.10;;;1.70;;
63342;SDS011;49465;57.664;39.686;2023-08-07T12:39:45;5.32;;;1.80;;
63342;SDS011;49465;57.664;39.686;2023-08-07T12:42:20;2.75;;;1.80;;
63342;SDS011;49465;57.664;39.686;2023-08-07T12:44:52;3.72;;;1.80;;
63342;SDS011;49465;57.664;39.686;2023-08-07T12:47:24;3.72;;;2.05;;
63342;SDS011;49465;57.664;39.686;2023-08-07T12:49:53;3.22;;;1.90;;
63342;SDS011;49465;57.664;39.686;2023-08-07T12:52:30;2.28;;;1.80;;
63342;SDS011;49465;57.664;39.686;2023-08-07T12:55:01;3.28;;;1.80;;
63342;SDS011;49465;57.664;39.686;2023-08-07T12:57:39;3.30;;;1.90;;
63342;SDS011;49465;57.664;39.686;2023-08-07T13:00:11;2.60;;;1.70;;
63342;SDS011;49465;57.664;39.686;2023-08-07T13:02:45;3.33;;;1.90;;
63342;SDS011;49465;57.664;39.686;2023-08-07T13:05:18;2.65;;;2.00;;
63342;SDS011;49465;57.664;39.686;2023-08-07T13:07:48;4.53;;;2.20;;
63342;SDS011;49465;57.664;39.686;2023-08-07T13:10:22;2.60;;;1.98;;
63342;SDS011;49465;57.664;39.686;2023-08-07T13:13:06;2.53;;;2.00;;
63342;SDS011;49465;57.664;39.686;2023-08-07T13:15:37;2.95;;;1.80;;
63342;SDS011;49465;57.664;39.686;2023-08-07T13:18:09;2.17;;;1.80;;
63342;SDS011;49465;57.664;39.686;2023-08-07T13:20:44;2.88;;;1.90;;
63342;SDS011;49465;57.664;39.686;2023-08-07T13:23:14;4.10;;;1.77;;
63342;SDS011;49465;57.664;39.686;2023-08-07T13:25:43;2.25;;;2.05;;
63342;SDS011;49465;57.664;39.686;2023-08-07T13:28:22;3.25;;;1.77;;
63342;SDS011;49465;57.664;39.686;2023-08-07T13:30:56;3.75;;;1.60;;
63342;SDS011;49465;57.664;39.686;2023-08-07T13:33:25;2.92;;;1.60;;
63342;SDS011;49465;57.664;39.686;2023-08-07T13:36:00;2.35;;;1.90;;
63342;SDS011;49465;57.664;39.686;2023-08-07T13:38:41;3.05;;;1.80;;
63342;SDS011;49465;57.664;39.686;2023-08-07T13:41:10;2.33;;;1.90;;
63342;SDS011;49465;57.664;39.686;2023-08-07T13:43:45;5.15;;;1.95;;
63342;SDS011;49465;57.664;39.686;2023-08-07T13:46:20;3.35;;;1.75;;
63342;SDS011;49465;57.664;39.686;2023-08-07T13:48:56;3.05;;;2.00;;
63342;SDS011;49465;57.664;39.686;2023-08-07T13:51:28;3.30;;;1.63;;
63342;SDS011;49465;57.664;39.686;2023-08-07T13:54:04;4.80;;;1.80;;
63342;SDS011;49465;57.664;39.686;2023-08-07T13:56:41;2.35;;;1.70;;
63342;SDS011;49465;57.664;39.686;2023-08-07T13:59:13;3.97;;;1.77;;
63342;SDS011;49465;57.664;39.686;2023-08-07T14:01:53;3.53;;;1.70;;
63342;SDS011;49465;57.664;39.686;2023-08-07T14:04:25;3.17;;;1.80;;
63342;SDS011;49465;57.664;39.686;2023-08-07T14:07:00;4.20;;;2.10;;
63342;SDS011;49465;57.664;39.686;2023-08-07T14:09:32;5.28;;;1.98;;
63342;SDS011;49465;57.664;39.686;2023-08-07T14:12:00;5.65;;;2.10;;
63342;SDS011;49465;57.664;39.686;2023-08-07T14:14:38;2.47;;;1.88;;
63342;SDS011;49465;57.664;39.686;2023-08-07T14:17:13;2.75;;;1.90;;
63342;SDS011;49465;57.664;39.686;2023-08-07T14:19:51;5.80;;;2.15;;
63342;SDS011;49465;57.664;39.686;2023-08-07T14:22:27;4.80;;;2.03;;
63342;SDS011;49465;57.664;39.686;2023-08-07T14:25:05;5.20;;;2.13;;
63342;SDS011;49465;57.664;39.686;2023-08-07T14:27:40;4.68;;;1.90;;
63342;SDS011;49465;57.664;39.686;2023-08-07T14:30:15;3.85;;;2.05;;
63342;SDS011;49465;57.664;39.686;2023-08-07T14:32:44;4.93;;;1.73;;
63342;SDS011;49465;57.664;39.686;2023-08-07T14:35:19;3.03;;;1.85;;
63342;SDS011;49465;57.664;39.686;2023-08-07T14:37:49;3.17;;;1.73;;
63342;SDS011;49465;57.664;39.686;2023-08-07T14:40:21;2.33;;;1.80;;
63342;SDS011;49465;57.664;39.686;2023-08-07T14:43:11;2.20;;;1.80;;
63342;SDS011;49465;57.664;39.686;2023-08-07T14:45:42;2.85;;;1.70;;
63342;SDS011;49465;57.664;39.686;2023-08-07T14:48:12;2.75;;;1.73;;
63342;SDS011;49465;57.664;39.686;2023-08-07T14:50:44;6.65;;;1.90;;
63342;SDS011;49465;57.664;39.686;2023-08-07T14:53:18;1.90;;;1.77;;
63342;SDS011;49465;57.664;39.686;2023-08-07T14:55:52;2.45;;;1.80;;
63342;SDS011;49465;57.664;39.686;2023-08-07T14:58:25;3.47;;;1.60;;
63342;SDS011;49465;57.664;39.686;2023-08-07T15:01:00;4.32;;;1.90;;
63342;SDS011;49465;57.664;39.686;2023-08-07T15:03:37;3.47;;;1.70;;
63342;SDS011;49465;57.664;39.686;2023-08-07T15:06:09;2.67;;;1.50;;
63342;SDS011;49465;57.664;39.686;2023-08-07T15:08:43;2.60;;;1.48;;
63342;SDS011;49465;57.664;39.686;2023-08-07T15:11:17;1.88;;;1.40;;
63342;SDS011;49465;57.664;39.686;2023-08-07T15:13:46;1.47;;;1.30;;
63342;SDS011;49465;57.664;39.686;2023-08-07T15:16:21;2.90;;;1.60;;
63342;SDS011;49465;57.664;39.686;2023-08-07T15:18:53;2.60;;;1.50;;
63342;SDS011;49465;57.664;39.686;2023-08-07T15:21:29;3.97;;;1.60;;
63342;SDS011;49465;57.664;39.686;2023-08-07T15:24:01;5.28;;;1.60;;
63342;SDS011;49465;57.664;39.686;2023-08-07T15:26:30;2.53;;;1.60;;
63342;SDS011;49465;57.664;39.686;2023-08-07T15:29:07;4.53;;;1.60;;
63342;SDS011;49465;57.664;39.686;2023-08-07T15:31:38;3.78;;;1.60;;